sensor_id;sensor_type;location;lat;lon;timestamp;P1;P2;P0
33948;PMS7003;20229;49.856;19.030;2023-02-01T00:01:23;10;8;6
33948;PMS7003;20229;49.856;19.030;2023-02-01T00:06:46;8;8;5
33948;PMS7003;20229;49.856;19.030;2023-02-01T00:11:50;10;9;6
33948;PMS7003;20229;49.856;19.030;2023-02-01T00:17:15;10;10;8
33948;PMS7003;20229;49.856;19.030;2023-02-01T00:22:21;7;6;4
33948;PMS7003;20229;49.856;19.030;2023-02-01T00:27:37;7;6;4
33948;PMS7003;20229;49.856;19.030;2023-02-01T00:32:41;8;7;5
33948;PMS7003;20229;49.856;19.030;2023-02-01T00:38:03;7;6;4
33948;PMS7003;20229;49.856;19.030;2023-02-01T00:43:06;8;6;4
33948;PMS7003;20229;49.856;19.030;2023-02-01T00:48:29;10;7;6
33948;PMS7003;20229;49.856;19.030;2023-02-01T00:53:33;8;8;6
33948;PMS7003;20229;49.856;19.030;2023-02-01T00:58:54;7;5;4
33948;PMS7003;20229;49.856;19.030;2023-02-01T01:03:58;7;7;5
33948;PMS7003;20229;49.856;19.030;2023-02-01T01:09:20;9;7;5
33948;PMS7003;20229;49.856;19.030;2023-02-01T01:14:26;9;7;5
33948;PMS7003;20229;49.856;19.030;2023-02-01T01:19:46;7;7;5
33948;PMS7003;20229;49.856;19.030;2023-02-01T01:24:49;5;5;4
33948;PMS7003;20229;49.856;19.030;2023-02-01T01:35:31;7;6;4
33948;PMS7003;20229;49.856;19.030;2023-02-01T01:40:37;5;4;3
33948;PMS7003;20229;49.856;19.030;2023-02-01T01:45:41;7;6;5
33948;PMS7003;20229;49.856;19.030;2023-02-01T01:51:03;5;4;2
33948;PMS7003;20229;49.856;19.030;2023-02-01T01:56:13;12;10;9
33948;PMS7003;20229;49.856;19.030;2023-02-01T02:01:28;13;11;9
33948;PMS7003;20229;49.856;19.030;2023-02-01T02:06:37;9;4;3
33948;PMS7003;20229;49.856;19.030;2023-02-01T02:11:54;4;3;2
33948;PMS7003;20229;49.856;19.030;2023-02-01T02:16:59;3;3;3
33948;PMS7003;20229;49.856;19.030;2023-02-01T02:59:30;1;1;0
33948;PMS7003;20229;49.856;19.030;2023-02-01T03:04:54;2;2;0
33948;PMS7003;20229;49.856;19.030;2023-02-01T03:10:00;2;2;2
33948;PMS7003;20229;49.856;19.030;2023-02-01T03:15:09;2;2;0
33948;PMS7003;20229;49.856;19.030;2023-02-01T03:20:15;1;1;0
33948;PMS7003;20229;49.856;19.030;2023-02-01T03:25:26;0;0;0
33948;PMS7003;20229;49.856;19.030;2023-02-01T03:30:35;2;2;1
33948;PMS7003;20229;49.856;19.030;2023-02-01T03:46:18;3;2;2
33948;PMS7003;20229;49.856;19.030;2023-02-01T03:51:28;3;3;2
33948;PMS7003;20229;49.856;19.030;2023-02-01T03:56:34;3;3;2
33948;PMS7003;20229;49.856;19.030;2023-02-01T04:01:40;6;6;5
33948;PMS7003;20229;49.856;19.030;2023-02-01T04:06:45;5;3;2
33948;PMS7003;20229;49.856;19.030;2023-02-01T04:11:50;6;5;4
33948;PMS7003;20229;49.856;19.030;2023-02-01T04:17:01;8;7;6
33948;PMS7003;20229;49.856;19.030;2023-02-01T04:22:05;8;6;5
33948;PMS7003;20229;49.856;19.030;2023-02-01T04:27:27;5;5;4
33948;PMS7003;20229;49.856;19.030;2023-02-01T04:32:31;6;5;4
33948;PMS7003;20229;49.856;19.030;2023-02-01T04:37:53;6;5;4
33948;PMS7003;20229;49.856;19.030;2023-02-01T04:42:56;10;10;8
33948;PMS7003;20229;49.856;19.030;2023-02-01T04:48:19;2;2;1
33948;PMS7003;20229;49.856;19.030;2023-02-01T04:53:24;6;5;5
33948;PMS7003;20229;49.856;19.030;2023-02-01T04:58:44;5;5;3
33948;PMS7003;20229;49.856;19.030;2023-02-01T05:03:48;3;3;2
33948;PMS7003;20229;49.856;19.030;2023-02-01T05:09:10;1;1;0
33948;PMS7003;20229;49.856;19.030;2023-02-01T05:14:14;1;1;0
33948;PMS7003;20229;49.856;19.030;2023-02-01T05:19:36;4;3;0
33948;PMS7003;20229;49.856;19.030;2023-02-01T05:24:39;1;1;1
33948;PMS7003;20229;49.856;19.030;2023-02-01T05:30:02;4;3;2
33948;PMS7003;20229;49.856;19.030;2023-02-01T05:35:11;7;3;2
33948;PMS7003;20229;49.856;19.030;2023-02-01T05:40:27;2;2;2
33948;PMS7003;20229;49.856;19.030;2023-02-01T05:45:33;2;2;2
33948;PMS7003;20229;49.856;19.030;2023-02-01T05:50:52;6;5;3
33948;PMS7003;20229;49.856;19.030;2023-02-01T05:55:56;2;2;1
33948;PMS7003;20229;49.856;19.030;2023-02-01T06:01:18;4;3;2
33948;PMS7003;20229;49.856;19.030;2023-02-01T06:06:21;3;2;1
33948;PMS7003;20229;49.856;19.030;2023-02-01T06:11:43;5;5;3
33948;PMS7003;20229;49.856;19.030;2023-02-01T06:16:50;6;5;3
33948;PMS7003;20229;49.856;19.030;2023-02-01T06:22:09;7;6;5
33948;PMS7003;20229;49.856;19.030;2023-02-01T06:27:14;7;5;4
33948;PMS7003;20229;49.856;19.030;2023-02-01T06:32:35;7;6;5
33948;PMS7003;20229;49.856;19.030;2023-02-01T06:37:39;4;4;2
33948;PMS7003;20229;49.856;19.030;2023-02-01T06:43:00;6;5;3
33948;PMS7003;20229;49.856;19.030;2023-02-01T06:48:06;4;3;2
33948;PMS7003;20229;49.856;19.030;2023-02-01T06:53:26;3;2;1
33948;PMS7003;20229;49.856;19.030;2023-02-01T06:58:30;5;4;2
33948;PMS7003;20229;49.856;19.030;2023-02-01T07:03:52;6;6;4
33948;PMS7003;20229;49.856;19.030;2023-02-01T07:08:55;6;4;3
33948;PMS7003;20229;49.856;19.030;2023-02-01T07:14:17;6;5;3
33948;PMS7003;20229;49.856;19.030;2023-02-01T07:19:21;8;7;5
33948;PMS7003;20229;49.856;19.030;2023-02-01T07:24:43;13;11;8
33948;PMS7003;20229;49.856;19.030;2023-02-01T07:29:46;8;8;6
33948;PMS7003;20229;49.856;19.030;2023-02-01T07:35:09;9;8;6
33948;PMS7003;20229;49.856;19.030;2023-02-01T07:40:12;8;7;6
33948;PMS7003;20229;49.856;19.030;2023-02-01T07:45:35;11;9;8
33948;PMS7003;20229;49.856;19.030;2023-02-01T07:50:39;10;9;7
33948;PMS7003;20229;49.856;19.030;2023-02-01T07:56:00;6;5;4
33948;PMS7003;20229;49.856;19.030;2023-02-01T08:01:05;8;7;5
33948;PMS7003;20229;49.856;19.030;2023-02-01T08:06:26;5;5;5
33948;PMS7003;20229;49.856;19.030;2023-02-01T08:11:31;8;7;7
33948;PMS7003;20229;49.856;19.030;2023-02-01T08:16:51;7;7;6
33948;PMS7003;20229;49.856;19.030;2023-02-01T08:21:55;10;9;7
33948;PMS7003;20229;49.856;19.030;2023-02-01T08:27:17;15;13;11
33948;PMS7003;20229;49.856;19.030;2023-02-01T08:32:21;14;12;11
33948;PMS7003;20229;49.856;19.030;2023-02-01T08:37:43;18;16;15
33948;PMS7003;20229;49.856;19.030;2023-02-01T08:42:46;17;16;15
33948;PMS7003;20229;49.856;19.030;2023-02-01T08:48:08;17;17;15
33948;PMS7003;20229;49.856;19.030;2023-02-01T08:53:13;18;18;14
33948;PMS7003;20229;49.856;19.030;2023-02-01T08:58:34;21;16;15
33948;PMS7003;20229;49.856;19.030;2023-02-01T09:03:37;15;14;12
33948;PMS7003;20229;49.856;19.030;2023-02-01T09:09:00;23;20;17
33948;PMS7003;20229;49.856;19.030;2023-02-01T09:14:03;20;18;15
33948;PMS7003;20229;49.856;19.030;2023-02-01T09:19:26;30;26;20
33948;PMS7003;20229;49.856;19.030;2023-02-01T09:24:29;33;30;22
33948;PMS7003;20229;49.856;19.030;2023-02-01T09:29:52;27;25;20
33948;PMS7003;20229;49.856;19.030;2023-02-01T09:34:55;38;33;25
33948;PMS7003;20229;49.856;19.030;2023-02-01T09:40:18;40;36;29
33948;PMS7003;20229;49.856;19.030;2023-02-01T09:50:49;53;44;37
33948;PMS7003;20229;49.856;19.030;2023-02-01T09:56:06;47;40;31
33948;PMS7003;20229;49.856;19.030;2023-02-01T10:17:20;36;33;28
33948;PMS7003;20229;49.856;19.030;2023-02-01T10:22:24;53;45;41
33948;PMS7003;20229;49.856;19.030;2023-02-01T10:27:34;47;41;36
33948;PMS7003;20229;49.856;19.030;2023-02-01T10:32:40;38;34;28
33948;PMS7003;20229;49.856;19.030;2023-02-01T10:37:44;41;37;31
33948;PMS7003;20229;49.856;19.030;2023-02-01T10:42:57;15;14;12
33948;PMS7003;20229;49.856;19.030;2023-02-01T10:48:04;35;32;26
33948;PMS7003;20229;49.856;19.030;2023-02-01T10:53:21;24;22;20
33948;PMS7003;20229;49.856;19.030;2023-02-01T10:58:30;26;20;19
33948;PMS7003;20229;49.856;19.030;2023-02-01T11:03:52;31;30;24
33948;PMS7003;20229;49.856;19.030;2023-02-01T11:09:10;30;27;23
33948;PMS7003;20229;49.856;19.030;2023-02-01T11:19:33;30;27;23
33948;PMS7003;20229;49.856;19.030;2023-02-01T11:24:38;25;24;21
33948;PMS7003;20229;49.856;19.030;2023-02-01T11:29:48;76;65;62
33948;PMS7003;20229;49.856;19.030;2023-02-01T11:35:04;20;20;18
33948;PMS7003;20229;49.856;19.030;2023-02-01T11:45:30;29;26;22
33948;PMS7003;20229;49.856;19.030;2023-02-01T11:50:39;19;17;15
33948;PMS7003;20229;49.856;19.030;2023-02-01T11:55:56;26;21;17
33948;PMS7003;20229;49.856;19.030;2023-02-01T12:01:11;24;24;20
33948;PMS7003;20229;49.856;19.030;2023-02-01T12:22:19;37;34;28
33948;PMS7003;20229;49.856;19.030;2023-02-01T12:27:38;24;23;19
33948;PMS7003;20229;49.856;19.030;2023-02-01T12:43:22;36;31;27
33948;PMS7003;20229;49.856;19.030;2023-02-01T12:48:37;54;44;39
33948;PMS7003;20229;49.856;19.030;2023-02-01T12:53:47;36;33;27
33948;PMS7003;20229;49.856;19.030;2023-02-01T12:58:56;30;28;24
33948;PMS7003;20229;49.856;19.030;2023-02-01T13:09:23;35;31;26
33948;PMS7003;20229;49.856;19.030;2023-02-01T13:30:15;34;31;26
33948;PMS7003;20229;49.856;19.030;2023-02-01T13:35:28;26;26;22
33948;PMS7003;20229;49.856;19.030;2023-02-01T13:40:41;27;26;22
33948;PMS7003;20229;49.856;19.030;2023-02-01T13:45:51;30;28;24
33948;PMS7003;20229;49.856;19.030;2023-02-01T13:51:01;24;22;19
33948;PMS7003;20229;49.856;19.030;2023-02-01T14:06:37;23;23;20
33948;PMS7003;20229;49.856;19.030;2023-02-01T14:27:29;21;20;18
33948;PMS7003;20229;49.856;19.030;2023-02-01T14:32:38;38;33;28
33948;PMS7003;20229;49.856;19.030;2023-02-01T14:37:52;46;40;32
33948;PMS7003;20229;49.856;19.030;2023-02-01T14:43:01;48;41;34
33948;PMS7003;20229;49.856;19.030;2023-02-01T14:53:22;42;35;30
33948;PMS7003;20229;49.856;19.030;2023-02-01T15:09:03;32;29;24
33948;PMS7003;20229;49.856;19.030;2023-02-01T15:14:13;23;21;18
33948;PMS7003;20229;49.856;19.030;2023-02-01T15:19:17;18;17;14
33948;PMS7003;20229;49.856;19.030;2023-02-01T15:24:33;21;20;16
33948;PMS7003;20229;49.856;19.030;2023-02-01T15:29:36;17;16;14
33948;PMS7003;20229;49.856;19.030;2023-02-01T15:34:59;15;13;11
33948;PMS7003;20229;49.856;19.030;2023-02-01T15:40:18;14;12;9
33948;PMS7003;20229;49.856;19.030;2023-02-01T15:45:28;14;11;8
33948;PMS7003;20229;49.856;19.030;2023-02-01T15:50:34;15;13;10
33948;PMS7003;20229;49.856;19.030;2023-02-01T15:55:54;16;13;10
33948;PMS7003;20229;49.856;19.030;2023-02-01T16:01:01;16;14;10
33948;PMS7003;20229;49.856;19.030;2023-02-01T16:11:31;15;15;13
33948;PMS7003;20229;49.856;19.030;2023-02-01T16:16:42;13;11;7
33948;PMS7003;20229;49.856;19.030;2023-02-01T16:21:49;25;23;17
33948;PMS7003;20229;49.856;19.030;2023-02-01T16:27:07;18;17;13
33948;PMS7003;20229;49.856;19.030;2023-02-01T16:32:15;23;22;16
33948;PMS7003;20229;49.856;19.030;2023-02-01T16:37:33;15;14;12
33948;PMS7003;20229;49.856;19.030;2023-02-01T16:42:39;15;12;10
33948;PMS7003;20229;49.856;19.030;2023-02-01T16:47:58;10;10;7
33948;PMS7003;20229;49.856;19.030;2023-02-01T16:53:02;19;18;13
33948;PMS7003;20229;49.856;19.030;2023-02-01T16:58:25;13;12;10
33948;PMS7003;20229;49.856;19.030;2023-02-01T17:03:29;14;11;9
33948;PMS7003;20229;49.856;19.030;2023-02-01T17:08:51;15;15;11
33948;PMS7003;20229;49.856;19.030;2023-02-01T17:19:16;19;18;12
33948;PMS7003;20229;49.856;19.030;2023-02-01T17:24:27;14;13;10
33948;PMS7003;20229;49.856;19.030;2023-02-01T17:29:41;21;18;15
33948;PMS7003;20229;49.856;19.030;2023-02-01T17:34:45;18;15;9
33948;PMS7003;20229;49.856;19.030;2023-02-01T17:40:10;16;14;9
33948;PMS7003;20229;49.856;19.030;2023-02-01T17:50:36;17;15;12
33948;PMS7003;20229;49.856;19.030;2023-02-01T17:55:44;19;16;11
33948;PMS7003;20229;49.856;19.030;2023-02-01T18:01:00;17;14;11
33948;PMS7003;20229;49.856;19.030;2023-02-01T18:06:05;29;25;18
33948;PMS7003;20229;49.856;19.030;2023-02-01T18:11:24;21;15;11
33948;PMS7003;20229;49.856;19.030;2023-02-01T18:16:29;18;14;10
33948;PMS7003;20229;49.856;19.030;2023-02-01T18:21:50;31;25;19
33948;PMS7003;20229;49.856;19.030;2023-02-01T18:26:55;20;18;15
33948;PMS7003;20229;49.856;19.030;2023-02-01T18:32:17;29;25;19
33948;PMS7003;20229;49.856;19.030;2023-02-01T18:37:21;15;12;9
33948;PMS7003;20229;49.856;19.030;2023-02-01T18:42:41;14;13;11
33948;PMS7003;20229;49.856;19.030;2023-02-01T18:47:45;20;18;12
33948;PMS7003;20229;49.856;19.030;2023-02-01T18:53:16;29;25;19
33948;PMS7003;20229;49.856;19.030;2023-02-01T18:58:21;15;14;10
33948;PMS7003;20229;49.856;19.030;2023-02-01T19:03:33;28;25;19
33948;PMS7003;20229;49.856;19.030;2023-02-01T19:08:38;17;16;12
33948;PMS7003;20229;49.856;19.030;2023-02-01T19:13:58;16;15;12
33948;PMS7003;20229;49.856;19.030;2023-02-01T19:19:02;15;13;11
33948;PMS7003;20229;49.856;19.030;2023-02-01T19:24:24;13;12;10
33948;PMS7003;20229;49.856;19.030;2023-02-01T19:29:34;16;13;10
33948;PMS7003;20229;49.856;19.030;2023-02-01T19:34:50;21;19;15
33948;PMS7003;20229;49.856;19.030;2023-02-01T19:39:53;21;18;15
33948;PMS7003;20229;49.856;19.030;2023-02-01T19:45:15;23;21;17
33948;PMS7003;20229;49.856;19.030;2023-02-01T19:50:19;55;40;27
33948;PMS7003;20229;49.856;19.030;2023-02-01T19:55:44;36;29;21
33948;PMS7003;20229;49.856;19.030;2023-02-01T20:00:51;55;41;29
33948;PMS7003;20229;49.856;19.030;2023-02-01T20:06:07;50;37;27
33948;PMS7003;20229;49.856;19.030;2023-02-01T20:11:12;55;42;28
33948;PMS7003;20229;49.856;19.030;2023-02-01T20:16:33;39;32;23
33948;PMS7003;20229;49.856;19.030;2023-02-01T20:21:36;54;40;27
33948;PMS7003;20229;49.856;19.030;2023-02-01T20:26:59;44;35;24
33948;PMS7003;20229;49.856;19.030;2023-02-01T20:32:02;48;37;25
33948;PMS7003;20229;49.856;19.030;2023-02-01T20:37:25;21;21;19
33948;PMS7003;20229;49.856;19.030;2023-02-01T20:43:14;46;38;28
33948;PMS7003;20229;49.856;19.030;2023-02-01T20:48:44;27;24;20
33948;PMS7003;20229;49.856;19.030;2023-02-01T20:53:48;24;21;16
33948;PMS7003;20229;49.856;19.030;2023-02-01T20:59:07;32;27;21
33948;PMS7003;20229;49.856;19.030;2023-02-01T21:04:14;21;20;16
33948;PMS7003;20229;49.856;19.030;2023-02-01T21:09:32;20;18;15
33948;PMS7003;20229;49.856;19.030;2023-02-01T21:14:38;18;17;14
33948;PMS7003;20229;49.856;19.030;2023-02-01T21:19:58;17;15;13
33948;PMS7003;20229;49.856;19.030;2023-02-01T21:25:01;13;11;9
33948;PMS7003;20229;49.856;19.030;2023-02-01T21:30:23;12;12;11
33948;PMS7003;20229;49.856;19.030;2023-02-01T21:35:27;10;9;7
33948;PMS7003;20229;49.856;19.030;2023-02-01T21:40:49;10;10;8
33948;PMS7003;20229;49.856;19.030;2023-02-01T21:46:04;14;13;10
33948;PMS7003;20229;49.856;19.030;2023-02-01T21:51:14;12;10;8
33948;PMS7003;20229;49.856;19.030;2023-02-01T21:56:18;7;6;5
33948;PMS7003;20229;49.856;19.030;2023-02-01T22:01:40;21;21;17
33948;PMS7003;20229;49.856;19.030;2023-02-01T22:06:44;9;9;7
33948;PMS7003;20229;49.856;19.030;2023-02-01T22:12:06;14;13;11
33948;PMS7003;20229;49.856;19.030;2023-02-01T22:17:11;7;6;5
33948;PMS7003;20229;49.856;19.030;2023-02-01T22:22:31;7;7;5
33948;PMS7003;20229;49.856;19.030;2023-02-01T22:27:35;5;5;4
33948;PMS7003;20229;49.856;19.030;2023-02-01T22:32:57;7;7;6
33948;PMS7003;20229;49.856;19.030;2023-02-01T22:38:00;13;11;10
33948;PMS7003;20229;49.856;19.030;2023-02-01T22:43:23;6;6;5
33948;PMS7003;20229;49.856;19.030;2023-02-01T22:48:27;7;6;5
33948;PMS7003;20229;49.856;19.030;2023-02-01T22:53:48;14;14;13
33948;PMS7003;20229;49.856;19.030;2023-02-01T22:58:59;9;7;6
33948;PMS7003;20229;49.856;19.030;2023-02-01T23:04:14;10;10;8
33948;PMS7003;20229;49.856;19.030;2023-02-01T23:09:21;5;5;4
33948;PMS7003;20229;49.856;19.030;2023-02-01T23:14:40;7;6;5
33948;PMS7003;20229;49.856;19.030;2023-02-01T23:19:54;10;10;9
33948;PMS7003;20229;49.856;19.030;2023-02-01T23:25:06;8;7;6
33948;PMS7003;20229;49.856;19.030;2023-02-01T23:30:10;4;3;2
33948;PMS7003;20229;49.856;19.030;2023-02-01T23:35:31;6;6;6
33948;PMS7003;20229;49.856;19.030;2023-02-01T23:40:34;11;10;10
33948;PMS7003;20229;49.856;19.030;2023-02-01T23:45:57;11;10;9
33948;PMS7003;20229;49.856;19.030;2023-02-01T23:51:01;6;6;4
33948;PMS7003;20229;49.856;19.030;2023-02-01T23:56:24;2;2;1
